sensor_id;sensor_type;location;lat;lon;timestamp;P1;durP1;ratioP1;P2;durP2;ratioP2
60312;SDS011;46158;52.850;6.970;2022-08-24T00:00:00;17.55;;;8.15;;
60312;SDS011;46158;52.850;6.970;2022-08-24T00:02:27;17.60;;;8.88;;
60312;SDS011;46158;52.850;6.970;2022-08-24T00:04:53;17.58;;;8.75;;
60312;SDS011;46158;52.850;6.970;2022-08-24T00:07:19;17.13;;;8.50;;
60312;SDS011;46158;52.850;6.970;2022-08-24T00:09:46;17.58;;;8.73;;
60312;SDS011;46158;52.850;6.970;2022-08-24T00:12:12;18.50;;;8.75;;
60312;SDS011;46158;52.850;6.970;2022-08-24T00:14:39;17.60;;;8.95;;
60312;SDS011;46158;52.850;6.970;2022-08-24T00:17:05;17.98;;;8.43;;
60312;SDS011;46158;52.850;6.970;2022-08-24T00:19:31;18.25;;;9.02;;
60312;SDS011;46158;52.850;6.970;2022-08-24T00:21:56;18.70;;;9.07;;
60312;SDS011;46158;52.850;6.970;2022-08-24T00:24:23;18.20;;;9.45;;
60312;SDS011;46158;52.850;6.970;2022-08-24T00:26:48;19.95;;;9.27;;
60312;SDS011;46158;52.850;6.970;2022-08-24T00:29:15;18.30;;;9.20;;
60312;SDS011;46158;52.850;6.970;2022-08-24T00:31:42;18.85;;;9.25;;
60312;SDS011;46158;52.850;6.970;2022-08-24T00:34:08;18.55;;;8.98;;
60312;SDS011;46158;52.850;6.970;2022-08-24T00:36:34;17.92;;;8.80;;
60312;SDS011;46158;52.850;6.970;2022-08-24T00:38:59;18.05;;;8.68;;
60312;SDS011;46158;52.850;6.970;2022-08-24T00:41:26;17.67;;;8.32;;
60312;SDS011;46158;52.850;6.970;2022-08-24T00:43:54;20.60;;;9.93;;
60312;SDS011;46158;52.850;6.970;2022-08-24T00:49:11;19.23;;;9.25;;
60312;SDS011;46158;52.850;6.970;2022-08-24T00:51:52;18.52;;;9.55;;
60312;SDS011;46158;52.850;6.970;2022-08-24T00:54:22;19.45;;;9.93;;
60312;SDS011;46158;52.850;6.970;2022-08-24T00:56:53;18.70;;;9.80;;
60312;SDS011;46158;52.850;6.970;2022-08-24T00:59:23;20.10;;;10.20;;
60312;SDS011;46158;52.850;6.970;2022-08-24T01:01:53;19.40;;;9.90;;
60312;SDS011;46158;52.850;6.970;2022-08-24T01:04:25;19.17;;;10.40;;
60312;SDS011;46158;52.850;6.970;2022-08-24T01:06:57;19.80;;;10.02;;
60312;SDS011;46158;52.850;6.970;2022-08-24T01:09:23;18.38;;;9.40;;
60312;SDS011;46158;52.850;6.970;2022-08-24T01:11:49;19.63;;;10.35;;
60312;SDS011;46158;52.850;6.970;2022-08-24T01:14:16;18.27;;;9.60;;
60312;SDS011;46158;52.850;6.970;2022-08-24T01:16:43;18.98;;;9.93;;
60312;SDS011;46158;52.850;6.970;2022-08-24T01:22:32;18.90;;;9.98;;
60312;SDS011;46158;52.850;6.970;2022-08-24T01:25:17;18.33;;;9.60;;
60312;SDS011;46158;52.850;6.970;2022-08-24T01:27:43;19.13;;;9.90;;
60312;SDS011;46158;52.850;6.970;2022-08-24T01:30:12;18.55;;;9.10;;
60312;SDS011;46158;52.850;6.970;2022-08-24T01:32:40;18.85;;;9.95;;
60312;SDS011;46158;52.850;6.970;2022-08-24T01:35:15;19.27;;;9.80;;
60312;SDS011;46158;52.850;6.970;2022-08-24T01:37:41;18.83;;;9.35;;
60312;SDS011;46158;52.850;6.970;2022-08-24T01:40:07;18.73;;;9.10;;
60312;SDS011;46158;52.850;6.970;2022-08-24T01:42:33;18.60;;;9.48;;
60312;SDS011;46158;52.850;6.970;2022-08-24T01:44:59;18.50;;;9.35;;
60312;SDS011;46158;52.850;6.970;2022-08-24T01:47:25;18.63;;;9.48;;
60312;SDS011;46158;52.850;6.970;2022-08-24T01:49:50;18.85;;;9.52;;
60312;SDS011;46158;52.850;6.970;2022-08-24T01:52:18;18.63;;;8.98;;
60312;SDS011;46158;52.850;6.970;2022-08-24T01:54:46;18.13;;;9.15;;
60312;SDS011;46158;52.850;6.970;2022-08-24T01:57:13;18.20;;;8.60;;
60312;SDS011;46158;52.850;6.970;2022-08-24T01:59:39;18.00;;;8.75;;
60312;SDS011;46158;52.850;6.970;2022-08-24T02:02:13;17.60;;;8.40;;
60312;SDS011;46158;52.850;6.970;2022-08-24T02:04:43;18.73;;;8.77;;
60312;SDS011;46158;52.850;6.970;2022-08-24T02:07:09;16.38;;;8.27;;
60312;SDS011;46158;52.850;6.970;2022-08-24T02:09:35;18.65;;;9.25;;
60312;SDS011;46158;52.850;6.970;2022-08-24T02:12:01;17.40;;;8.30;;
60312;SDS011;46158;52.850;6.970;2022-08-24T02:14:28;17.90;;;8.95;;
60312;SDS011;46158;52.850;6.970;2022-08-24T02:16:55;18.38;;;8.70;;
60312;SDS011;46158;52.850;6.970;2022-08-24T02:19:21;16.98;;;8.45;;
60312;SDS011;46158;52.850;6.970;2022-08-24T02:21:47;17.60;;;8.73;;
60312;SDS011;46158;52.850;6.970;2022-08-24T02:24:13;18.27;;;8.52;;
60312;SDS011;46158;52.850;6.970;2022-08-24T02:26:39;18.35;;;9.32;;
60312;SDS011;46158;52.850;6.970;2022-08-24T02:29:05;17.33;;;8.48;;
60312;SDS011;46158;52.850;6.970;2022-08-24T02:31:31;17.50;;;8.52;;
60312;SDS011;46158;52.850;6.970;2022-08-24T02:33:57;16.85;;;8.27;;
60312;SDS011;46158;52.850;6.970;2022-08-24T02:36:23;17.70;;;8.80;;
60312;SDS011;46158;52.850;6.970;2022-08-24T02:38:49;17.58;;;8.50;;
60312;SDS011;46158;52.850;6.970;2022-08-24T02:41:15;18.25;;;9.18;;
60312;SDS011;46158;52.850;6.970;2022-08-24T02:43:41;17.60;;;8.27;;
60312;SDS011;46158;52.850;6.970;2022-08-24T02:46:07;16.65;;;8.02;;
60312;SDS011;46158;52.850;6.970;2022-08-24T02:48:40;18.35;;;8.60;;
60312;SDS011;46158;52.850;6.970;2022-08-24T02:51:05;17.05;;;8.27;;
60312;SDS011;46158;52.850;6.970;2022-08-24T02:53:31;17.67;;;8.65;;
60312;SDS011;46158;52.850;6.970;2022-08-24T02:55:57;15.98;;;7.70;;
60312;SDS011;46158;52.850;6.970;2022-08-24T02:58:22;17.08;;;8.68;;
60312;SDS011;46158;52.850;6.970;2022-08-24T03:00:48;17.23;;;7.97;;
60312;SDS011;46158;52.850;6.970;2022-08-24T03:03:13;16.92;;;7.93;;
60312;SDS011;46158;52.850;6.970;2022-08-24T03:05:39;17.67;;;8.10;;
60312;SDS011;46158;52.850;6.970;2022-08-24T03:08:05;16.58;;;7.68;;
60312;SDS011;46158;52.850;6.970;2022-08-24T03:10:31;17.27;;;8.15;;
60312;SDS011;46158;52.850;6.970;2022-08-24T03:12:56;16.95;;;7.68;;
60312;SDS011;46158;52.850;6.970;2022-08-24T03:15:25;17.20;;;8.02;;
60312;SDS011;46158;52.850;6.970;2022-08-24T03:17:51;16.08;;;7.53;;
60312;SDS011;46158;52.850;6.970;2022-08-24T03:20:17;16.13;;;7.38;;
60312;SDS011;46158;52.850;6.970;2022-08-24T03:22:44;15.27;;;7.03;;
60312;SDS011;46158;52.850;6.970;2022-08-24T03:25:11;16.23;;;7.50;;
60312;SDS011;46158;52.850;6.970;2022-08-24T03:27:38;14.77;;;6.72;;
60312;SDS011;46158;52.850;6.970;2022-08-24T03:30:05;16.23;;;7.40;;
60312;SDS011;46158;52.850;6.970;2022-08-24T03:32:34;14.90;;;7.13;;
60312;SDS011;46158;52.850;6.970;2022-08-24T03:34:59;15.77;;;7.32;;
60312;SDS011;46158;52.850;6.970;2022-08-24T03:37:26;15.02;;;7.03;;
60312;SDS011;46158;52.850;6.970;2022-08-24T03:39:51;14.57;;;6.97;;
60312;SDS011;46158;52.850;6.970;2022-08-24T03:42:17;15.40;;;7.15;;
60312;SDS011;46158;52.850;6.970;2022-08-24T03:44:43;15.10;;;6.97;;
60312;SDS011;46158;52.850;6.970;2022-08-24T03:47:08;16.45;;;7.03;;
60312;SDS011;46158;52.850;6.970;2022-08-24T03:49:35;17.05;;;7.45;;
60312;SDS011;46158;52.850;6.970;2022-08-24T03:52:02;13.75;;;6.55;;
60312;SDS011;46158;52.850;6.970;2022-08-24T03:54:28;16.98;;;7.53;;
60312;SDS011;46158;52.850;6.970;2022-08-24T03:56:55;16.77;;;7.50;;
60312;SDS011;46158;52.850;6.970;2022-08-24T03:59:22;14.75;;;6.65;;
60312;SDS011;46158;52.850;6.970;2022-08-24T04:01:49;13.70;;;6.20;;
60312;SDS011;46158;52.850;6.970;2022-08-24T04:04:15;12.98;;;6.30;;
60312;SDS011;46158;52.850;6.970;2022-08-24T04:06:41;15.35;;;7.40;;
60312;SDS011;46158;52.850;6.970;2022-08-24T04:09:08;13.80;;;6.57;;
60312;SDS011;46158;52.850;6.970;2022-08-24T04:11:34;14.35;;;6.50;;
60312;SDS011;46158;52.850;6.970;2022-08-24T04:14:00;14.25;;;6.80;;
60312;SDS011;46158;52.850;6.970;2022-08-24T04:16:26;14.23;;;7.03;;
60312;SDS011;46158;52.850;6.970;2022-08-24T04:18:55;17.10;;;6.82;;
60312;SDS011;46158;52.850;6.970;2022-08-24T04:21:28;13.75;;;7.03;;
60312;SDS011;46158;52.850;6.970;2022-08-24T04:23:57;11.88;;;6.03;;
60312;SDS011;46158;52.850;6.970;2022-08-24T04:26:26;12.85;;;6.38;;
60312;SDS011;46158;52.850;6.970;2022-08-24T04:28:53;13.37;;;6.37;;
60312;SDS011;46158;52.850;6.970;2022-08-24T04:31:19;12.77;;;6.38;;
60312;SDS011;46158;52.850;6.970;2022-08-24T04:33:46;13.02;;;6.20;;
60312;SDS011;46158;52.850;6.970;2022-08-24T04:36:14;11.75;;;6.05;;
60312;SDS011;46158;52.850;6.970;2022-08-24T04:38:40;12.60;;;6.28;;
60312;SDS011;46158;52.850;6.970;2022-08-24T04:41:07;12.40;;;6.13;;
60312;SDS011;46158;52.850;6.970;2022-08-24T04:43:37;33.20;;;26.40;;
60312;SDS011;46158;52.850;6.970;2022-08-24T04:46:05;29.83;;;25.25;;
60312;SDS011;46158;52.850;6.970;2022-08-24T04:48:31;28.48;;;24.88;;
60312;SDS011;46158;52.850;6.970;2022-08-24T04:51:04;27.02;;;23.90;;
60312;SDS011;46158;52.850;6.970;2022-08-24T04:53:32;29.80;;;24.63;;
60312;SDS011;46158;52.850;6.970;2022-08-24T04:55:59;27.95;;;22.85;;
60312;SDS011;46158;52.850;6.970;2022-08-24T04:58:26;27.05;;;20.55;;
60312;SDS011;46158;52.850;6.970;2022-08-24T05:00:53;23.25;;;18.23;;
60312;SDS011;46158;52.850;6.970;2022-08-24T05:03:19;26.38;;;17.85;;
60312;SDS011;46158;52.850;6.970;2022-08-24T05:05:45;26.40;;;18.52;;
60312;SDS011;46158;52.850;6.970;2022-08-24T05:08:13;26.75;;;20.23;;
60312;SDS011;46158;52.850;6.970;2022-08-24T05:10:43;27.50;;;21.88;;
60312;SDS011;46158;52.850;6.970;2022-08-24T05:13:10;29.45;;;22.58;;
60312;SDS011;46158;52.850;6.970;2022-08-24T05:15:39;31.27;;;22.73;;
60312;SDS011;46158;52.850;6.970;2022-08-24T05:18:07;31.70;;;24.38;;
60312;SDS011;46158;52.850;6.970;2022-08-24T05:20:32;31.13;;;24.13;;
60312;SDS011;46158;52.850;6.970;2022-08-24T05:22:59;28.25;;;23.58;;
60312;SDS011;46158;52.850;6.970;2022-08-24T05:25:26;28.83;;;23.35;;
60312;SDS011;46158;52.850;6.970;2022-08-24T05:27:52;28.10;;;23.02;;
60312;SDS011;46158;52.850;6.970;2022-08-24T05:30:18;29.77;;;23.75;;
60312;SDS011;46158;52.850;6.970;2022-08-24T05:32:44;29.60;;;24.15;;
60312;SDS011;46158;52.850;6.970;2022-08-24T05:35:11;30.08;;;25.65;;
60312;SDS011;46158;52.850;6.970;2022-08-24T05:37:37;31.20;;;24.60;;
60312;SDS011;46158;52.850;6.970;2022-08-24T05:40:05;28.05;;;23.60;;
60312;SDS011;46158;52.850;6.970;2022-08-24T05:42:34;26.03;;;22.10;;
60312;SDS011;46158;52.850;6.970;2022-08-24T05:45:00;27.10;;;22.88;;
60312;SDS011;46158;52.850;6.970;2022-08-24T05:47:26;26.83;;;22.55;;
60312;SDS011;46158;52.850;6.970;2022-08-24T05:49:51;26.08;;;22.00;;
60312;SDS011;46158;52.850;6.970;2022-08-24T05:52:18;29.00;;;24.65;;
60312;SDS011;46158;52.850;6.970;2022-08-24T05:54:50;27.90;;;23.90;;
60312;SDS011;46158;52.850;6.970;2022-08-24T05:57:20;32.40;;;28.20;;
60312;SDS011;46158;52.850;6.970;2022-08-24T05:59:46;32.60;;;28.15;;
60312;SDS011;46158;52.850;6.970;2022-08-24T06:02:12;30.45;;;26.70;;
60312;SDS011;46158;52.850;6.970;2022-08-24T06:04:38;31.08;;;26.42;;
60312;SDS011;46158;52.850;6.970;2022-08-24T06:07:05;30.63;;;25.73;;
60312;SDS011;46158;52.850;6.970;2022-08-24T06:12:00;32.17;;;26.60;;
60312;SDS011;46158;52.850;6.970;2022-08-24T06:14:27;33.47;;;29.17;;
60312;SDS011;46158;52.850;6.970;2022-08-24T06:16:52;32.13;;;28.40;;
60312;SDS011;46158;52.850;6.970;2022-08-24T06:19:19;33.35;;;28.45;;
60312;SDS011;46158;52.850;6.970;2022-08-24T06:21:46;33.88;;;29.45;;
60312;SDS011;46158;52.850;6.970;2022-08-24T06:24:14;34.22;;;29.40;;
60312;SDS011;46158;52.850;6.970;2022-08-24T06:26:41;34.25;;;28.73;;
60312;SDS011;46158;52.850;6.970;2022-08-24T06:29:26;35.17;;;30.35;;
60312;SDS011;46158;52.850;6.970;2022-08-24T06:31:52;37.80;;;32.72;;
60312;SDS011;46158;52.850;6.970;2022-08-24T06:34:18;37.00;;;33.03;;
60312;SDS011;46158;52.850;6.970;2022-08-24T06:36:44;40.95;;;36.17;;
60312;SDS011;46158;52.850;6.970;2022-08-24T06:39:10;40.22;;;35.90;;
60312;SDS011;46158;52.850;6.970;2022-08-24T06:41:37;41.55;;;37.03;;
60312;SDS011;46158;52.850;6.970;2022-08-24T06:44:04;42.45;;;37.85;;
60312;SDS011;46158;52.850;6.970;2022-08-24T06:46:31;44.50;;;39.70;;
60312;SDS011;46158;52.850;6.970;2022-08-24T06:48:57;45.10;;;40.20;;
60312;SDS011;46158;52.850;6.970;2022-08-24T06:51:23;44.50;;;39.70;;
60312;SDS011;46158;52.850;6.970;2022-08-24T06:53:49;45.95;;;41.08;;
60312;SDS011;46158;52.850;6.970;2022-08-24T06:56:17;47.10;;;42.00;;
60312;SDS011;46158;52.850;6.970;2022-08-24T06:58:43;47.33;;;42.20;;
60312;SDS011;46158;52.850;6.970;2022-08-24T07:01:17;49.28;;;43.88;;
60312;SDS011;46158;52.850;6.970;2022-08-24T07:03:47;40.70;;;35.50;;
60312;SDS011;46158;52.850;6.970;2022-08-24T07:06:13;44.85;;;40.05;;
60312;SDS011;46158;52.850;6.970;2022-08-24T07:08:40;48.97;;;43.78;;
60312;SDS011;46158;52.850;6.970;2022-08-24T07:11:06;38.80;;;32.90;;
60312;SDS011;46158;52.850;6.970;2022-08-24T07:13:33;36.70;;;30.80;;
60312;SDS011;46158;52.850;6.970;2022-08-24T07:15:59;31.35;;;23.58;;
60312;SDS011;46158;52.850;6.970;2022-08-24T07:18:25;28.45;;;20.85;;
60312;SDS011;46158;52.850;6.970;2022-08-24T07:20:52;28.23;;;19.58;;
60312;SDS011;46158;52.850;6.970;2022-08-24T07:23:19;26.25;;;18.48;;
60312;SDS011;46158;52.850;6.970;2022-08-24T07:25:45;26.33;;;19.10;;
60312;SDS011;46158;52.850;6.970;2022-08-24T07:28:12;26.02;;;18.75;;
60312;SDS011;46158;52.850;6.970;2022-08-24T07:30:38;28.73;;;20.02;;
60312;SDS011;46158;52.850;6.970;2022-08-24T07:33:04;27.40;;;18.40;;
60312;SDS011;46158;52.850;6.970;2022-08-24T07:35:31;28.10;;;19.02;;
60312;SDS011;46158;52.850;6.970;2022-08-24T07:37:57;28.23;;;18.15;;
60312;SDS011;46158;52.850;6.970;2022-08-24T07:40:24;24.80;;;16.83;;
60312;SDS011;46158;52.850;6.970;2022-08-24T07:42:52;25.90;;;17.63;;
60312;SDS011;46158;52.850;6.970;2022-08-24T07:45:19;25.23;;;17.90;;
60312;SDS011;46158;52.850;6.970;2022-08-24T07:47:46;26.35;;;18.30;;
60312;SDS011;46158;52.850;6.970;2022-08-24T07:50:13;27.42;;;18.77;;
60312;SDS011;46158;52.850;6.970;2022-08-24T07:52:40;28.02;;;19.30;;
60312;SDS011;46158;52.850;6.970;2022-08-24T07:55:07;25.70;;;17.23;;
60312;SDS011;46158;52.850;6.970;2022-08-24T07:57:33;26.50;;;18.05;;
60312;SDS011;46158;52.850;6.970;2022-08-24T08:00:00;24.88;;;16.48;;
60312;SDS011;46158;52.850;6.970;2022-08-24T08:02:31;27.67;;;17.77;;
60312;SDS011;46158;52.850;6.970;2022-08-24T08:04:57;25.00;;;16.60;;
60312;SDS011;46158;52.850;6.970;2022-08-24T08:07:23;24.52;;;17.60;;
60312;SDS011;46158;52.850;6.970;2022-08-24T08:09:49;26.50;;;18.17;;
60312;SDS011;46158;52.850;6.970;2022-08-24T08:12:15;25.85;;;17.15;;
60312;SDS011;46158;52.850;6.970;2022-08-24T08:14:41;25.48;;;16.33;;
60312;SDS011;46158;52.850;6.970;2022-08-24T08:17:06;24.77;;;15.60;;
60312;SDS011;46158;52.850;6.970;2022-08-24T08:19:33;23.80;;;15.40;;
60312;SDS011;46158;52.850;6.970;2022-08-24T08:21:59;23.60;;;14.02;;
60312;SDS011;46158;52.850;6.970;2022-08-24T08:24:43;21.00;;;11.98;;
60312;SDS011;46158;52.850;6.970;2022-08-24T08:27:09;21.63;;;12.35;;
60312;SDS011;46158;52.850;6.970;2022-08-24T08:29:37;21.25;;;12.52;;
60312;SDS011;46158;52.850;6.970;2022-08-24T08:32:05;21.20;;;11.60;;
60312;SDS011;46158;52.850;6.970;2022-08-24T08:34:31;21.20;;;12.13;;
60312;SDS011;46158;52.850;6.970;2022-08-24T08:36:58;21.25;;;11.88;;
60312;SDS011;46158;52.850;6.970;2022-08-24T08:39:24;20.25;;;10.88;;
60312;SDS011;46158;52.850;6.970;2022-08-24T08:50:04;19.48;;;9.45;;
60312;SDS011;46158;52.850;6.970;2022-08-24T09:03:23;16.90;;;7.80;;
60312;SDS011;46158;52.850;6.970;2022-08-24T09:11:44;15.93;;;7.30;;
60312;SDS011;46158;52.850;6.970;2022-08-24T09:14:34;18.98;;;8.48;;
60312;SDS011;46158;52.850;6.970;2022-08-24T09:42:56;12.70;;;5.18;;
60312;SDS011;46158;52.850;6.970;2022-08-24T09:48:26;11.00;;;4.90;;
60312;SDS011;46158;52.850;6.970;2022-08-24T09:54:25;12.00;;;4.75;;
60312;SDS011;46158;52.850;6.970;2022-08-24T10:08:21;12.32;;;4.80;;
60312;SDS011;46158;52.850;6.970;2022-08-24T10:10:54;11.13;;;4.75;;
60312;SDS011;46158;52.850;6.970;2022-08-24T10:13:54;10.98;;;4.43;;
60312;SDS011;46158;52.850;6.970;2022-08-24T10:16:42;11.38;;;4.78;;
60312;SDS011;46158;52.850;6.970;2022-08-24T10:19:26;11.60;;;4.50;;
60312;SDS011;46158;52.850;6.970;2022-08-24T10:22:22;11.35;;;4.57;;
60312;SDS011;46158;52.850;6.970;2022-08-24T10:28:05;9.38;;;4.32;;
60312;SDS011;46158;52.850;6.970;2022-08-24T10:33:34;10.85;;;4.65;;
60312;SDS011;46158;52.850;6.970;2022-08-24T10:44:48;10.25;;;4.43;;
60312;SDS011;46158;52.850;6.970;2022-08-24T10:47:58;11.80;;;4.68;;
60312;SDS011;46158;52.850;6.970;2022-08-24T10:50:30;10.20;;;4.60;;
60312;SDS011;46158;52.850;6.970;2022-08-24T10:53:03;9.15;;;4.15;;
60312;SDS011;46158;52.850;6.970;2022-08-24T10:55:42;12.23;;;4.30;;
60312;SDS011;46158;52.850;6.970;2022-08-24T11:00:43;10.00;;;4.25;;
60312;SDS011;46158;52.850;6.970;2022-08-24T11:03:11;10.60;;;4.75;;
60312;SDS011;46158;52.850;6.970;2022-08-24T11:05:48;11.73;;;4.63;;
60312;SDS011;46158;52.850;6.970;2022-08-24T11:08:20;11.63;;;4.75;;
60312;SDS011;46158;52.850;6.970;2022-08-24T11:11:07;11.90;;;4.40;;
60312;SDS011;46158;52.850;6.970;2022-08-24T11:13:36;11.38;;;4.43;;
60312;SDS011;46158;52.850;6.970;2022-08-24T11:16:03;9.77;;;4.47;;
60312;SDS011;46158;52.850;6.970;2022-08-24T11:18:46;11.80;;;4.70;;
60312;SDS011;46158;52.850;6.970;2022-08-24T11:21:30;9.02;;;4.20;;
60312;SDS011;46158;52.850;6.970;2022-08-24T11:23:59;11.57;;;4.50;;
60312;SDS011;46158;52.850;6.970;2022-08-24T11:26:27;8.88;;;4.20;;
60312;SDS011;46158;52.850;6.970;2022-08-24T11:28:56;9.60;;;4.10;;
60312;SDS011;46158;52.850;6.970;2022-08-24T11:31:28;9.95;;;4.20;;
60312;SDS011;46158;52.850;6.970;2022-08-24T11:34:01;10.95;;;4.40;;
60312;SDS011;46158;52.850;6.970;2022-08-24T11:36:31;9.75;;;4.25;;
60312;SDS011;46158;52.850;6.970;2022-08-24T11:44:33;11.35;;;4.10;;
60312;SDS011;46158;52.850;6.970;2022-08-24T11:49:58;11.25;;;4.65;;
60312;SDS011;46158;52.850;6.970;2022-08-24T11:55:12;10.18;;;4.28;;
60312;SDS011;46158;52.850;6.970;2022-08-24T11:57:46;9.10;;;4.30;;
60312;SDS011;46158;52.850;6.970;2022-08-24T12:00:22;11.60;;;4.07;;
60312;SDS011;46158;52.850;6.970;2022-08-24T12:03:16;8.95;;;4.13;;
60312;SDS011;46158;52.850;6.970;2022-08-24T12:06:21;10.75;;;4.50;;
60312;SDS011;46158;52.850;6.970;2022-08-24T12:09:03;10.05;;;4.28;;
60312;SDS011;46158;52.850;6.970;2022-08-24T12:20:04;8.73;;;4.10;;
60312;SDS011;46158;52.850;6.970;2022-08-24T12:22:51;6.22;;;3.30;;
60312;SDS011;46158;52.850;6.970;2022-08-24T12:25:24;8.93;;;4.00;;
60312;SDS011;46158;52.850;6.970;2022-08-24T12:28:13;8.60;;;4.10;;
60312;SDS011;46158;52.850;6.970;2022-08-24T12:30:41;8.30;;;4.03;;
60312;SDS011;46158;52.850;6.970;2022-08-24T12:33:09;8.88;;;4.03;;
60312;SDS011;46158;52.850;6.970;2022-08-24T12:35:38;8.15;;;4.07;;
60312;SDS011;46158;52.850;6.970;2022-08-24T12:41:04;8.27;;;3.65;;
60312;SDS011;46158;52.850;6.970;2022-08-24T12:43:54;6.93;;;3.60;;
60312;SDS011;46158;52.850;6.970;2022-08-24T12:46:26;8.65;;;3.85;;
60312;SDS011;46158;52.850;6.970;2022-08-24T13:04:43;6.78;;;3.75;;
60312;SDS011;46158;52.850;6.970;2022-08-24T13:17:44;6.88;;;3.50;;
60312;SDS011;46158;52.850;6.970;2022-08-24T13:20:18;6.57;;;3.50;;
60312;SDS011;46158;52.850;6.970;2022-08-24T13:35:57;8.07;;;3.55;;
60312;SDS011;46158;52.850;6.970;2022-08-24T13:40:59;5.95;;;3.10;;
60312;SDS011;46158;52.850;6.970;2022-08-24T13:43:58;6.60;;;3.28;;
60312;SDS011;46158;52.850;6.970;2022-08-24T13:48:57;7.55;;;3.28;;
60312;SDS011;46158;52.850;6.970;2022-08-24T13:54:18;5.32;;;3.00;;
60312;SDS011;46158;52.850;6.970;2022-08-24T14:00:00;6.88;;;3.30;;
60312;SDS011;46158;52.850;6.970;2022-08-24T14:02:51;6.43;;;3.20;;
60312;SDS011;46158;52.850;6.970;2022-08-24T14:05:44;5.85;;;3.10;;
60312;SDS011;46158;52.850;6.970;2022-08-24T14:17:06;5.60;;;2.92;;
60312;SDS011;46158;52.850;6.970;2022-08-24T14:20:21;3.85;;;2.70;;
60312;SDS011;46158;52.850;6.970;2022-08-24T14:23:12;6.20;;;3.08;;
60312;SDS011;46158;52.850;6.970;2022-08-24T14:25:48;4.65;;;3.08;;
60312;SDS011;46158;52.850;6.970;2022-08-24T14:34:30;5.45;;;3.00;;
60312;SDS011;46158;52.850;6.970;2022-08-24T14:42:46;6.20;;;2.95;;
60312;SDS011;46158;52.850;6.970;2022-08-24T14:48:18;5.70;;;2.92;;
60312;SDS011;46158;52.850;6.970;2022-08-24T14:50:59;5.55;;;3.05;;
60312;SDS011;46158;52.850;6.970;2022-08-24T15:09:47;7.03;;;3.45;;
60312;SDS011;46158;52.850;6.970;2022-08-24T15:20:20;10.60;;;3.40;;
60312;SDS011;46158;52.850;6.970;2022-08-24T15:23:34;7.13;;;3.30;;
60312;SDS011;46158;52.850;6.970;2022-08-24T15:26:10;19.75;;;6.75;;
60312;SDS011;46158;52.850;6.970;2022-08-24T15:28:47;33.40;;;11.40;;
60312;SDS011;46158;52.850;6.970;2022-08-24T15:31:17;33.70;;;11.98;;
60312;SDS011;46158;52.850;6.970;2022-08-24T15:34:00;38.67;;;14.02;;
60312;SDS011;46158;52.850;6.970;2022-08-24T15:36:27;22.65;;;6.20;;
60312;SDS011;46158;52.850;6.970;2022-08-24T15:38:57;21.98;;;6.88;;
60312;SDS011;46158;52.850;6.970;2022-08-24T15:41:31;20.30;;;6.45;;
60312;SDS011;46158;52.850;6.970;2022-08-24T15:46:36;14.52;;;4.90;;
60312;SDS011;46158;52.850;6.970;2022-08-24T15:51:50;19.45;;;5.63;;
60312;SDS011;46158;52.850;6.970;2022-08-24T15:54:31;16.52;;;5.00;;
60312;SDS011;46158;52.850;6.970;2022-08-24T15:59:43;17.30;;;4.70;;
60312;SDS011;46158;52.850;6.970;2022-08-24T16:07:23;13.88;;;4.80;;
60312;SDS011;46158;52.850;6.970;2022-08-24T16:10:07;15.82;;;4.80;;
60312;SDS011;46158;52.850;6.970;2022-08-24T16:12:35;14.05;;;4.50;;
60312;SDS011;46158;52.850;6.970;2022-08-24T16:15:14;13.25;;;4.38;;
60312;SDS011;46158;52.850;6.970;2022-08-24T16:17:46;13.48;;;4.70;;
60312;SDS011;46158;52.850;6.970;2022-08-24T16:22:49;12.10;;;4.15;;
60312;SDS011;46158;52.850;6.970;2022-08-24T16:27:55;11.70;;;3.72;;
60312;SDS011;46158;52.850;6.970;2022-08-24T16:33:32;10.18;;;3.78;;
60312;SDS011;46158;52.850;6.970;2022-08-24T16:36:03;8.95;;;3.78;;
60312;SDS011;46158;52.850;6.970;2022-08-24T16:38:32;8.73;;;3.60;;
60312;SDS011;46158;52.850;6.970;2022-08-24T16:40:59;8.50;;;3.33;;
60312;SDS011;46158;52.850;6.970;2022-08-24T16:43:28;7.70;;;3.53;;
60312;SDS011;46158;52.850;6.970;2022-08-24T16:45:55;7.70;;;3.30;;
60312;SDS011;46158;52.850;6.970;2022-08-24T16:48:21;8.80;;;3.58;;
60312;SDS011;46158;52.850;6.970;2022-08-24T16:50:47;8.70;;;3.45;;
60312;SDS011;46158;52.850;6.970;2022-08-24T16:53:13;9.43;;;3.40;;
60312;SDS011;46158;52.850;6.970;2022-08-24T16:55:39;7.80;;;3.13;;
60312;SDS011;46158;52.850;6.970;2022-08-24T16:58:05;6.45;;;2.80;;
60312;SDS011;46158;52.850;6.970;2022-08-24T17:00:31;8.20;;;3.35;;
60312;SDS011;46158;52.850;6.970;2022-08-24T17:02:57;4.30;;;2.60;;
60312;SDS011;46158;52.850;6.970;2022-08-24T17:05:22;6.22;;;3.10;;
60312;SDS011;46158;52.850;6.970;2022-08-24T17:07:49;6.95;;;3.15;;
60312;SDS011;46158;52.850;6.970;2022-08-24T17:10:16;7.65;;;2.92;;
60312;SDS011;46158;52.850;6.970;2022-08-24T17:12:43;5.88;;;3.05;;
60312;SDS011;46158;52.850;6.970;2022-08-24T17:15:10;4.68;;;2.53;;
60312;SDS011;46158;52.850;6.970;2022-08-24T17:17:36;6.35;;;2.90;;
60312;SDS011;46158;52.850;6.970;2022-08-24T17:20:07;6.63;;;3.22;;
60312;SDS011;46158;52.850;6.970;2022-08-24T17:22:35;6.60;;;3.00;;
60312;SDS011;46158;52.850;6.970;2022-08-24T17:25:00;6.47;;;2.90;;
60312;SDS011;46158;52.850;6.970;2022-08-24T17:27:30;5.30;;;2.90;;
60312;SDS011;46158;52.850;6.970;2022-08-24T17:29:57;5.53;;;2.80;;
60312;SDS011;46158;52.850;6.970;2022-08-24T17:32:24;6.45;;;2.70;;
60312;SDS011;46158;52.850;6.970;2022-08-24T17:34:50;7.75;;;3.10;;
60312;SDS011;46158;52.850;6.970;2022-08-24T17:37:16;7.28;;;3.17;;
60312;SDS011;46158;52.850;6.970;2022-08-24T17:39:42;10.48;;;3.10;;
60312;SDS011;46158;52.850;6.970;2022-08-24T17:42:08;4.10;;;2.88;;
60312;SDS011;46158;52.850;6.970;2022-08-24T17:44:34;6.22;;;2.78;;
60312;SDS011;46158;52.850;6.970;2022-08-24T17:47:01;8.27;;;2.67;;
60312;SDS011;46158;52.850;6.970;2022-08-24T17:49:28;5.32;;;2.70;;
60312;SDS011;46158;52.850;6.970;2022-08-24T17:51:55;7.18;;;3.40;;
60312;SDS011;46158;52.850;6.970;2022-08-24T17:54:22;8.55;;;3.33;;
60312;SDS011;46158;52.850;6.970;2022-08-24T17:56:49;9.02;;;3.13;;
60312;SDS011;46158;52.850;6.970;2022-08-24T17:59:16;9.68;;;3.20;;
60312;SDS011;46158;52.850;6.970;2022-08-24T18:01:57;8.13;;;3.50;;
60312;SDS011;46158;52.850;6.970;2022-08-24T18:04:28;8.05;;;3.17;;
60312;SDS011;46158;52.850;6.970;2022-08-24T18:06:56;9.85;;;3.50;;
60312;SDS011;46158;52.850;6.970;2022-08-24T18:09:32;9.73;;;3.40;;
60312;SDS011;46158;52.850;6.970;2022-08-24T18:11:59;8.18;;;3.40;;
60312;SDS011;46158;52.850;6.970;2022-08-24T18:14:26;8.23;;;3.20;;
60312;SDS011;46158;52.850;6.970;2022-08-24T18:16:53;8.60;;;3.50;;
60312;SDS011;46158;52.850;6.970;2022-08-24T18:19:20;8.63;;;3.75;;
60312;SDS011;46158;52.850;6.970;2022-08-24T18:21:47;8.60;;;3.60;;
60312;SDS011;46158;52.850;6.970;2022-08-24T18:24:12;8.68;;;3.60;;
60312;SDS011;46158;52.850;6.970;2022-08-24T18:26:38;8.32;;;3.70;;
60312;SDS011;46158;52.850;6.970;2022-08-24T18:29:10;10.93;;;4.00;;
60312;SDS011;46158;52.850;6.970;2022-08-24T18:31:42;10.23;;;4.10;;
60312;SDS011;46158;52.850;6.970;2022-08-24T18:34:09;11.15;;;4.15;;
60312;SDS011;46158;52.850;6.970;2022-08-24T18:36:39;8.07;;;3.80;;
60312;SDS011;46158;52.850;6.970;2022-08-24T18:39:05;13.43;;;4.47;;
60312;SDS011;46158;52.850;6.970;2022-08-24T18:41:32;6.55;;;3.75;;
60312;SDS011;46158;52.850;6.970;2022-08-24T18:44:00;10.23;;;4.03;;